Time;durP1;ratioP1;P1;durP2;ratioP2;P2;SDS_P1;SDS_P2;PMS_P1;PMS_P2;Temp;Humidity;BMP_temperature;BMP_pressure;BME280_temperature;BME280_humidity;BME280_pressure;Samples;Min_cycle;Max_cycle;Signal;HPM_P1;HPM_P2
2021/08/14 00:00:38;;;;;;;;;;;;;;;18.69;60.87;100454.44;126893;1089;103007;-80
2021/08/14 00:03:26;;;;;;;;;;;;;;;18.64;60.98;100456.50;126851;1090;102880;-80
2021/08/14 00:06:16;;;;;;;;;;;;;;;18.61;61.48;100446.09;126846;1087;102947;-81
2021/08/14 00:09:03;;;;;;;;;;;;;;;18.56;61.52;100442.90;126946;1090;102850;-80
2021/08/14 00:11:51;;;;;;;;;;;;;;;18.52;61.65;100436.11;126801;1090;101255;-80
2021/08/14 00:14:39;;;;;;;;;;;;;;;18.48;62.11;100427.50;126927;1087;102997;-80
2021/08/14 00:17:27;;;;;;;;;;;;;;;18.47;62.32;100424.96;126789;1088;102843;-80
2021/08/14 00:20:14;;;;;;;;;;;;;;;18.45;62.39;100424.21;126930;1090;102845;-80
2021/08/14 00:23:03;;;;;;;;;;;;;;;18.40;62.17;100427.14;126833;1088;101901;-80
2021/08/14 00:25:50;;;;;;;;;;;;;;;18.40;62.16;100427.14;126749;1090;102907;-80
2021/08/14 00:28:37;;;;;;;;;;;;;;;18.39;62.34;100430.73;126834;1089;102964;-80
2021/08/14 00:31:25;;;;;;;;;;;;;;;18.37;62.58;100432.63;126717;1090;102873;-80
2021/08/14 00:34:13;;;;;;;;;;;;;;;18.34;62.57;100422.25;126852;1088;103007;-80
2021/08/14 00:37:00;;;;;;;;;;;;;;;18.35;62.47;100423.95;126839;1090;102920;-80
2021/08/14 00:39:47;;;;;;;;;;;;;;;18.35;62.47;100426.59;126900;1089;102922;-80
2021/08/14 00:42:35;;;;;;;;;;;;;;;18.33;62.99;100417.91;126743;1088;102973;-80
2021/08/14 00:45:23;;;;;;;;;;;;;;;18.31;62.77;100417.13;126912;1090;103492;-80
2021/08/14 00:48:11;;;;;;;;;;;;;;;18.29;62.97;100419.02;126841;1088;100452;-80
2021/08/14 00:50:58;;;;;;;;;;;;;;;18.27;62.82;100415.63;126826;1090;102966;-80
2021/08/14 00:53:45;;;;;;;;;;;;;;;18.25;63.06;100417.52;126769;1088;102862;-80
2021/08/14 00:56:32;;;;;;;;;;;;;;;18.21;63.23;100418.66;126924;1087;102877;-80
2021/08/14 00:59:20;;;;;;;;;;;;;;;18.20;63.33;100411.68;126807;1088;102920;-80
2021/08/14 01:02:08;;;;;;;;;;;;;;;18.17;63.15;100415.36;126879;1090;102849;-80
2021/08/14 01:04:56;;;;;;;;;;;;;;;18.15;63.29;100406.69;126854;1089;102855;-80
2021/08/14 01:07:44;;;;;;;;;;;;;;;18.11;63.41;100403.36;126909;1090;103845;-80
2021/08/14 01:10:31;;;;;;;;;;;;;;;18.08;64.04;100405.34;126831;1087;103498;-80
2021/08/14 01:13:20;;;;;;;;;;;;;;;18.06;63.53;100399.31;126866;1090;102651;-80
2021/08/14 01:16:07;;;;;;;;;;;;;;;18.03;63.71;100405.63;126927;1090;102950;-80
2021/08/14 01:18:56;;;;;;;;;;;;;;;18.02;63.56;100400.45;126849;1090;102906;-80
2021/08/14 01:21:50;;;;;;;;;;;;;;;17.99;63.70;100388.29;126911;1088;102850;-81
2021/08/14 01:24:39;;;;;;;;;;;;;;;17.98;63.54;100398.94;126760;1087;102856;-80
2021/08/14 01:27:26;;;;;;;;;;;;;;;17.97;63.77;100397.25;126770;1090;102866;-82
2021/08/14 01:30:14;;;;;;;;;;;;;;;17.96;64.16;100392.91;126801;1089;102944;-81
2021/08/14 01:33:02;;;;;;;;;;;;;;;17.94;64.31;100395.61;126852;1089;102972;-80
2021/08/14 01:35:49;;;;;;;;;;;;;;;17.93;63.93;100396.56;126802;1090;102913;-81
2021/08/14 01:39:06;;;;;;;;;;;;;;;17.92;64.12;100388.73;126865;1088;101847;-81
2021/08/14 01:41:55;;;;;;;;;;;;;;;17.89;64.59;100383.65;126815;1089;103010;-80
2021/08/14 01:44:42;;;;;;;;;;;;;;;17.87;64.50;100385.53;126924;1087;102873;-81
2021/08/14 01:47:30;;;;;;;;;;;;;;;17.85;64.44;100377.72;126800;1088;102753;-80
2021/08/14 01:50:18;;;;;;;;;;;;;;;17.82;65.05;100377.91;126915;1090;103036;-80
2021/08/14 01:53:06;;;;;;;;;;;;;;;17.80;64.57;100378.00;126829;1087;103403;-80
2021/08/14 01:55:53;;;;;;;;;;;;;;;17.78;64.67;100369.33;126837;1090;103214;-80
2021/08/14 01:58:41;;;;;;;;;;;;;;;17.77;64.55;100377.30;126794;1088;102649;-80
2021/08/14 02:01:29;;;;;;;;;;;;;;;17.75;64.96;100373.91;126919;1087;103313;-81
2021/08/14 02:04:17;;;;;;;;;;;;;;;17.72;64.98;100367.03;126961;1089;102874;-80
2021/08/14 02:07:05;;;;;;;;;;;;;;;17.69;65.56;100366.38;126843;1089;102909;-81
2021/08/14 02:09:53;;;;;;;;;;;;;;;17.65;65.30;100359.56;126777;1089;103058;-79
2021/08/14 02:12:40;;;;;;;;;;;;;;;17.63;64.86;100361.45;126758;1090;102964;-79
2021/08/14 02:15:28;;;;;;;;;;;;;;;17.58;65.42;100359.06;126897;1089;102924;-79
2021/08/14 02:18:16;;;;;;;;;;;;;;;17.53;65.48;100354.06;126727;1090;102863;-79
2021/08/14 02:21:04;;;;;;;;;;;;;;;17.51;65.96;100352.46;126956;1087;102818;-79
2021/08/14 02:23:52;;;;;;;;;;;;;;;17.48;66.23;100353.49;126755;1087;103052;-79
2021/08/14 02:26:39;;;;;;;;;;;;;;;17.45;66.41;100352.83;126913;1090;102867;-81
2021/08/14 02:29:27;;;;;;;;;;;;;;;17.42;66.41;100345.95;126839;1088;102917;-80
2021/08/14 02:32:14;;;;;;;;;;;;;;;17.42;66.63;100340.69;126929;1090;101060;-80
2021/08/14 02:35:03;;;;;;;;;;;;;;;17.41;66.81;100346.87;126772;1087;102862;-80
2021/08/14 02:37:51;;;;;;;;;;;;;;;17.39;66.50;100338.20;126889;1089;102924;-80
2021/08/14 02:40:39;;;;;;;;;;;;;;;17.39;66.24;100335.56;126924;1089;102850;-80
2021/08/14 02:43:26;;;;;;;;;;;;;;;17.38;66.64;100333.87;126885;1089;102853;-80
2021/08/14 02:46:14;;;;;;;;;;;;;;;17.37;66.85;100334.81;126875;1089;102864;-80
2021/08/14 02:49:02;;;;;;;;;;;;;;;17.36;66.46;100321.72;126787;1089;103029;-80
2021/08/14 02:51:49;;;;;;;;;;;;;;;17.34;66.57;100323.60;126986;1089;102651;-80
2021/08/14 02:54:37;;;;;;;;;;;;;;;17.36;66.86;100332.27;126824;1090;102881;-79
2021/08/14 02:57:25;;;;;;;;;;;;;;;17.33;66.99;100333.30;126892;1089;103316;-79
2021/08/14 03:00:13;;;;;;;;;;;;;;;17.31;66.91;100332.55;126855;1089;101739;-79
2021/08/14 03:03:01;;;;;;;;;;;;;;;17.30;66.92;100324.73;126953;1088;101901;-80
2021/08/14 03:05:48;;;;;;;;;;;;;;;17.30;67.42;100330.00;126794;1089;101495;-80
2021/08/14 03:08:36;;;;;;;;;;;;;;;17.28;67.16;100323.97;126884;1089;102929;-80
2021/08/14 03:11:24;;;;;;;;;;;;;;;17.28;67.40;100323.97;126727;1089;102892;-79
2021/08/14 03:14:11;;;;;;;;;;;;;;;17.28;67.27;100319.55;126940;1088;102878;-80
2021/08/14 03:16:58;;;;;;;;;;;;;;;17.27;67.40;100325.77;126837;1089;102874;-79
2021/08/14 03:19:46;;;;;;;;;;;;;;;17.25;67.50;100319.73;126647;1088;103757;-79
2021/08/14 03:22:34;;;;;;;;;;;;;;;17.26;67.39;100318.80;126930;1089;102824;-80
2021/08/14 03:25:22;;;;;;;;;;;;;;;17.26;67.35;100316.16;126843;1088;102908;-80
2021/08/14 03:28:09;;;;;;;;;;;;;;;17.24;67.41;100317.19;126932;1087;101007;-80
2021/08/14 03:30:57;;;;;;;;;;;;;;;17.22;67.74;100317.25;126778;1089;102924;-80
2021/08/14 03:33:45;;;;;;;;;;;;;;;17.20;67.99;100327.04;126955;1088;101147;-80
2021/08/14 03:36:32;;;;;;;;;;;;;;;17.18;67.84;100319.22;126780;1089;103015;-80
2021/08/14 03:39:20;;;;;;;;;;;;;;;17.18;67.98;100310.47;126827;1090;102339;-79
2021/08/14 03:42:07;;;;;;;;;;;;;;;17.19;68.52;100322.70;126856;1088;102892;-79
2021/08/14 03:44:55;;;;;;;;;;;;;;;17.20;68.11;100316.50;126951;1088;102878;-80
2021/08/14 03:47:43;;;;;;;;;;;;;;;17.19;68.03;100314.80;126711;1087;103361;-80
2021/08/14 03:50:30;;;;;;;;;;;;;;;17.21;68.63;100323.46;126945;1090;100508;-80
2021/08/14 03:53:20;;;;;;;;;;;;;;;17.20;68.06;100319.13;126897;1088;102751;-80
2021/08/14 03:56:08;;;;;;;;;;;;;;;17.19;68.67;100320.92;126806;1089;101775;-80
2021/08/14 03:58:55;;;;;;;;;;;;;;;17.23;68.09;100324.22;126939;1088;102937;-80
2021/08/14 04:01:44;;;;;;;;;;;;;;;17.25;68.59;100322.38;126823;1088;102858;-80
2021/08/14 04:04:32;;;;;;;;;;;;;;;17.27;68.64;100317.86;126919;1087;102856;-80
2021/08/14 04:07:19;;;;;;;;;;;;;;;17.30;68.42;100325.58;126845;1089;102974;-80
2021/08/14 04:10:07;;;;;;;;;;;;;;;17.33;68.27;100314.00;126929;1088;103058;-79
2021/08/14 04:12:55;;;;;;;;;;;;;;;17.37;68.08;100318.99;126809;1089;102967;-79
2021/08/14 04:15:42;;;;;;;;;;;;;;;17.43;67.87;100318.65;126894;1087;103018;-79
2021/08/14 04:18:30;;;;;;;;;;;;;;;17.52;67.88;100320.72;126796;1089;102927;-79
2021/08/14 04:21:17;;;;;;;;;;;;;;;17.62;67.82;100323.67;126849;1087;102888;-79
2021/08/14 04:24:05;;;;;;;;;;;;;;;17.72;67.55;100319.55;126799;1089;101881;-79
2021/08/14 04:26:53;;;;;;;;;;;;;;;17.85;67.27;100317.03;126914;1090;103406;-79
2021/08/14 04:29:40;;;;;;;;;;;;;;;17.97;67.02;100316.29;126828;1087;102954;-79
2021/08/14 04:32:33;;;;;;;;;;;;;;;18.10;66.91;100311.92;126840;1090;102996;-79
2021/08/14 04:35:20;;;;;;;;;;;;;;;18.28;66.48;100322.28;126934;1088;102682;-79
2021/08/14 04:38:08;;;;;;;;;;;;;;;18.41;66.28;100318.77;126813;1090;102968;-79
2021/08/14 04:40:55;;;;;;;;;;;;;;;18.53;65.96;100316.31;126904;1090;103281;-79
2021/08/14 04:43:43;;;;;;;;;;;;;;;18.63;65.92;100313.00;126693;1089;102651;-80
2021/08/14 04:46:30;;;;;;;;;;;;;;;18.78;65.71;100323.53;126749;1090;102922;-80
2021/08/14 04:49:19;;;;;;;;;;;;;;;18.94;65.61;100325.07;126808;1088;102846;-80
2021/08/14 04:52:06;;;;;;;;;;;;;;;19.13;65.21;100311.48;126864;1089;102889;-80
2021/08/14 04:54:58;;;;;;;;;;;;;;;19.38;64.71;100315.97;126739;1087;102850;-80
2021/08/14 04:57:46;;;;;;;;;;;;;;;20.45;64.12;100317.34;126871;1087;102872;-80
2021/08/14 05:00:33;;;;;;;;;;;;;;;21.76;61.99;100319.11;126790;1088;102769;-80
2021/08/14 05:03:20;;;;;;;;;;;;;;;22.80;59.87;100311.65;126873;1090;102871;-80
2021/08/14 05:06:09;;;;;;;;;;;;;;;23.49;58.01;100306.77;126756;1087;102923;-80
2021/08/14 05:08:56;;;;;;;;;;;;;;;24.47;56.34;100323.14;126912;1087;103028;-80
2021/08/14 05:11:45;;;;;;;;;;;;;;;24.38;54.33;100313.27;126816;1087;102833;-79
2021/08/14 05:14:32;;;;;;;;;;;;;;;23.81;54.38;100314.70;126774;1089;102830;-79
2021/08/14 05:17:20;;;;;;;;;;;;;;;23.35;54.91;100315.95;126874;1090;104882;-79
2021/08/14 05:20:07;;;;;;;;;;;;;;;22.94;55.18;100318.53;126721;1088;102881;-79
2021/08/14 05:22:55;;;;;;;;;;;;;;;22.64;56.07;100321.88;126859;1089;101875;-80
2021/08/14 05:25:42;;;;;;;;;;;;;;;22.62;55.93;100319.31;126724;1087;102660;-80
2021/08/14 05:28:31;;;;;;;;;;;;;;;22.54;56.60;100321.77;126884;1087;102663;-80
2021/08/14 05:31:18;;;;;;;;;;;;;;;22.41;56.77;100315.73;126709;1090;102785;-80
2021/08/14 05:34:06;;;;;;;;;;;;;;;22.37;56.90;100319.61;126853;1088;102871;-80
2021/08/14 05:36:54;;;;;;;;;;;;;;;22.43;56.55;100324.42;126712;1090;102962;-80
2021/08/14 05:39:41;;;;;;;;;;;;;;;22.28;56.51;100319.39;126829;1089;102865;-80
2021/08/14 05:42:30;;;;;;;;;;;;;;;22.24;57.02;100314.42;126740;1090;103660;-80
2021/08/14 05:45:18;;;;;;;;;;;;;;;22.45;57.52;100310.08;126882;1090;102997;-80
2021/08/14 05:48:06;;;;;;;;;;;;;;;22.65;56.86;100313.77;126907;1090;102882;-80
2021/08/14 05:50:54;;;;;;;;;;;;;;;22.89;56.86;100310.94;126934;1087;102910;-80
2021/08/14 05:53:42;;;;;;;;;;;;;;;22.99;56.52;100316.36;126900;1087;102940;-80
2021/08/14 05:56:29;;;;;;;;;;;;;;;23.12;56.05;100311.69;126767;1087;102895;-80
2021/08/14 05:59:17;;;;;;;;;;;;;;;23.21;55.90;100308.27;126904;1090;102889;-78
2021/08/14 06:02:04;;;;;;;;;;;;;;;23.29;55.51;100307.61;126782;1089;103023;-81
2021/08/14 06:04:52;;;;;;;;;;;;;;;23.92;55.30;100305.80;126904;1090;102966;-81
2021/08/14 06:07:39;;;;;;;;;;;;;;;24.35;54.12;100308.22;126749;1090;102920;-81
2021/08/14 06:10:27;;;;;;;;;;;;;;;24.78;53.62;100307.91;126932;1087;102933;-81
2021/08/14 06:13:14;;;;;;;;;;;;;;;24.94;53.15;100310.84;126804;1087;102852;-81
2021/08/14 06:16:03;;;;;;;;;;;;;;;25.34;53.05;100303.71;126932;1089;102953;-81
2021/08/14 06:18:52;;;;;;;;;;;;;;;25.84;52.03;100307.81;126788;1090;102851;-81
2021/08/14 06:21:40;;;;;;;;;;;;;;;27.20;50.75;100299.87;126887;1090;103385;-81
2021/08/14 06:24:27;;;;;;;;;;;;;;;28.63;48.96;100304.70;126812;1090;102865;-80
2021/08/14 06:27:15;;;;;;;;;;;;;;;30.16;46.48;100310.19;126600;1090;102895;-80
2021/08/14 06:30:04;;;;;;;;;;;;;;;31.47;44.68;100308.38;126778;1089;102912;-81
2021/08/14 06:32:51;;;;;;;;;;;;;;;32.15;42.56;100299.23;126746;1090;102934;-81
2021/08/14 06:35:40;;;;;;;;;;;;;;;32.85;41.54;100311.30;126900;1089;102905;-79
2021/08/14 06:38:27;;;;;;;;;;;;;;;33.13;40.17;100308.67;126794;1089;102962;-79
2021/08/14 06:41:15;;;;;;;;;;;;;;;33.47;39.44;100305.23;126804;1090;102850;-79
2021/08/14 06:44:03;;;;;;;;;;;;;;;33.65;37.95;100309.12;126822;1088;102922;-80
2021/08/14 06:46:51;;;;;;;;;;;;;;;33.18;37.94;100303.51;126885;1088;102946;-80
2021/08/14 06:49:41;;;;;;;;;;;;;;;33.02;38.19;100310.01;126786;1087;102897;-80
2021/08/14 06:52:29;;;;;;;;;;;;;;;33.05;38.12;100310.48;126938;1087;102833;-80
2021/08/14 06:55:16;;;;;;;;;;;;;;;33.07;37.50;100301.34;126787;1090;103003;-80
2021/08/14 06:58:04;;;;;;;;;;;;;;;32.72;37.41;100301.18;126917;1087;102928;-80
2021/08/14 07:00:51;;;;;;;;;;;;;;;32.57;37.30;100305.78;127008;1087;102956;-80
2021/08/14 07:03:48;;;;;;;;;;;;;;;32.79;37.63;100307.47;126889;1087;103093;-80
2021/08/14 07:06:38;;;;;;;;;;;;;;;33.46;37.14;100306.28;126949;1090;103097;-80
2021/08/14 07:09:25;;;;;;;;;;;;;;;34.28;36.93;100308.23;126805;1087;102908;-80
2021/08/14 07:12:14;;;;;;;;;;;;;;;34.75;35.45;100305.50;126891;1086;102847;-80
2021/08/14 07:15:01;;;;;;;;;;;;;;;35.34;35.00;100299.31;126873;1087;101779;-80
2021/08/14 07:17:50;;;;;;;;;;;;;;;36.00;33.88;100299.27;126896;1087;102845;-80
2021/08/14 07:20:38;;;;;;;;;;;;;;;36.17;33.19;100298.80;126869;1087;102747;-80
2021/08/14 07:23:26;;;;;;;;;;;;;;;36.57;32.65;100297.58;126915;1089;103006;-80
2021/08/14 07:26:13;;;;;;;;;;;;;;;36.77;32.36;100293.90;126834;1087;101791;-80
2021/08/14 07:29:01;;;;;;;;;;;;;;;36.94;31.74;100295.06;126944;1087;102935;-80
2021/08/14 07:31:51;;;;;;;;;;;;;;;36.85;31.82;100302.67;126858;1087;102873;-80
2021/08/14 07:34:40;;;;;;;;;;;;;;;36.74;31.85;100302.50;126894;1089;102879;-80
2021/08/14 07:37:28;;;;;;;;;;;;;;;36.51;31.97;100305.78;126852;1088;103036;-80
2021/08/14 07:40:17;;;;;;;;;;;;;;;36.31;32.32;100306.70;126810;1090;102856;-80
2021/08/14 07:43:08;;;;;;;;;;;;;;;36.24;32.23;100296.88;126754;1089;102859;-80
2021/08/14 07:45:55;;;;;;;;;;;;;;;36.51;31.76;100298.45;126752;1087;102793;-80
2021/08/14 07:48:43;;;;;;;;;;;;;;;37.01;32.25;100301.31;126930;1090;102664;-80
2021/08/14 07:51:30;;;;;;;;;;;;;;;37.43;31.00;100299.72;126685;1090;102879;-80
2021/08/14 07:54:18;;;;;;;;;;;;;;;37.59;30.54;100298.31;126936;1087;102848;-80
2021/08/14 07:57:05;;;;;;;;;;;;;;;37.93;30.48;100304.27;126803;1089;102847;-80
2021/08/14 07:59:54;;;;;;;;;;;;;;;38.73;30.20;100301.39;126873;1086;102848;-80
2021/08/14 08:02:42;;;;;;;;;;;;;;;39.50;29.13;100303.10;126845;1087;102879;-80
2021/08/14 08:05:30;;;;;;;;;;;;;;;39.94;27.91;100294.52;126876;1087;102892;-80
2021/08/14 08:08:18;;;;;;;;;;;;;;;40.30;27.99;100298.84;126766;1087;102928;-80
2021/08/14 08:11:05;;;;;;;;;;;;;;;40.97;27.80;100304.53;126754;1087;102940;-80
2021/08/14 08:13:53;;;;;;;;;;;;;;;41.20;26.61;100304.36;126779;1090;102956;-81
2021/08/14 08:16:40;;;;;;;;;;;;;;;41.33;26.84;100298.58;126851;1088;102871;-81
2021/08/14 08:19:28;;;;;;;;;;;;;;;41.59;26.38;100307.16;126889;1087;102884;-81
2021/08/14 08:22:15;;;;;;;;;;;;;;;41.83;25.29;100305.88;126819;1087;103066;-81
2021/08/14 08:25:03;;;;;;;;;;;;;;;41.92;25.35;100306.28;126905;1090;101895;-81
2021/08/14 08:27:52;;;;;;;;;;;;;;;42.06;25.54;100302.09;126770;1088;102692;-81
2021/08/14 08:30:40;;;;;;;;;;;;;;;42.27;25.17;100294.96;126956;1087;102809;-81
2021/08/14 08:33:28;;;;;;;;;;;;;;;42.45;24.93;100294.61;126834;1088;102852;-81
2021/08/14 08:36:16;;;;;;;;;;;;;;;42.69;24.54;100292.41;126915;1089;102976;-81
2021/08/14 08:39:03;;;;;;;;;;;;;;;42.69;24.52;100300.63;126779;1090;102846;-80
2021/08/14 08:41:51;;;;;;;;;;;;;;;42.58;24.38;100303.55;126882;1087;103131;-80
2021/08/14 08:44:39;;;;;;;;;;;;;;;42.37;24.36;100286.83;126740;1090;102927;-80
2021/08/14 08:47:29;;;;;;;;;;;;;;;42.18;24.04;100289.09;126867;1090;102974;-80
2021/08/14 08:50:16;;;;;;;;;;;;;;;42.24;24.32;100288.08;126797;1087;102885;-80
2021/08/14 08:53:04;;;;;;;;;;;;;;;42.10;24.43;100288.73;126886;1089;102935;-80
2021/08/14 08:55:52;;;;;;;;;;;;;;;41.91;24.83;100289.02;126746;1089;102928;-80
2021/08/14 08:58:39;;;;;;;;;;;;;;;41.72;24.01;100295.06;126874;1090;103376;-81
2021/08/14 09:01:27;;;;;;;;;;;;;;;41.56;24.05;100300.28;126923;1089;102881;-81
2021/08/14 09:04:30;;;;;;;;;;;;;;;41.42;24.11;100303.62;126783;1090;102937;-80
2021/08/14 09:07:27;;;;;;;;;;;;;;;41.08;24.50;100300.87;126872;1087;102819;-80
2021/08/14 09:10:22;;;;;;;;;;;;;;;40.95;25.00;100306.69;126813;1090;102938;-81
2021/08/14 09:13:17;;;;;;;;;;;;;;;40.60;24.98;100296.73;126930;1087;102952;-80
2021/08/14 09:16:23;;;;;;;;;;;;;;;40.56;24.94;100305.66;126820;1090;102879;-80
2021/08/14 09:19:24;;;;;;;;;;;;;;;40.53;25.13;100297.94;126941;1087;102866;-80
2021/08/14 09:22:16;;;;;;;;;;;;;;;40.11;25.40;100296.30;126802;1090;102905;-80
2021/08/14 09:25:15;;;;;;;;;;;;;;;40.05;25.95;100300.00;126840;1089;103029;-80
2021/08/14 09:28:03;;;;;;;;;;;;;;;40.01;25.68;100293.34;126906;1090;102948;-80
2021/08/14 09:30:55;;;;;;;;;;;;;;;39.84;25.45;100284.20;126919;1090;103499;-80
2021/08/14 09:33:48;;;;;;;;;;;;;;;39.64;25.87;100292.78;126944;1088;102960;-80
2021/08/14 09:36:35;;;;;;;;;;;;;;;39.52;25.87;100292.80;126990;1088;103451;-80
2021/08/14 09:39:23;;;;;;;;;;;;;;;39.54;25.72;100290.66;126854;1088;102949;-79
2021/08/14 09:42:10;;;;;;;;;;;;;;;39.73;25.74;100293.26;126979;1087;102850;-80
2021/08/14 09:45:15;;;;;;;;;;;;;;;39.91;25.06;100289.55;126843;1087;100914;-80
2021/08/14 09:48:18;;;;;;;;;;;;;;;39.52;25.34;100284.62;126959;1089;102847;-80
2021/08/14 09:51:25;;;;;;;;;;;;;;;39.35;26.04;100288.27;126854;1090;102881;-80
2021/08/14 09:54:12;;;;;;;;;;;;;;;39.55;25.09;100296.95;126782;1090;102969;-80
2021/08/14 09:57:12;;;;;;;;;;;;;;;39.33;25.29;100287.67;126841;1088;102830;-80
2021/08/14 10:00:01;;;;;;;;;;;;;;;39.10;25.61;100293.92;126886;1090;102927;-80
2021/08/14 10:02:59;;;;;;;;;;;;;;;39.35;25.92;100285.54;126813;1088;101889;-80
2021/08/14 10:05:47;;;;;;;;;;;;;;;39.01;25.41;100276.22;126971;1087;102854;-80
2021/08/14 10:08:36;;;;;;;;;;;;;;;38.17;26.45;100278.83;126813;1089;102941;-80
2021/08/14 10:11:23;;;;;;;;;;;;;;;38.01;26.56;100284.89;126972;1089;102922;-80
2021/08/14 10:14:11;;;;;;;;;;;;;;;37.74;27.16;100274.33;126864;1088;102846;-80
2021/08/14 10:16:59;;;;;;;;;;;;;;;37.83;27.23;100272.12;126862;1089;102937;-80
2021/08/14 10:19:48;;;;;;;;;;;;;;;38.06;27.15;100279.59;126881;1090;102948;-80
2021/08/14 10:22:37;;;;;;;;;;;;;;;38.19;27.06;100274.02;126781;1089;103160;-80
2021/08/14 10:25:25;;;;;;;;;;;;;;;38.28;27.28;100278.09;126955;1089;102859;-80
2021/08/14 10:28:13;;;;;;;;;;;;;;;38.29;27.51;100274.31;126792;1087;102855;-80
2021/08/14 10:31:00;;;;;;;;;;;;;;;38.46;27.21;100282.67;126779;1088;102966;-80
2021/08/14 10:33:47;;;;;;;;;;;;;;;38.57;27.02;100281.04;126793;1090;103332;-80
2021/08/14 10:36:35;;;;;;;;;;;;;;;38.51;26.04;100280.08;126893;1090;104075;-80
2021/08/14 10:39:27;;;;;;;;;;;;;;;38.37;25.70;100273.98;126767;1089;102913;-80
2021/08/14 10:42:15;;;;;;;;;;;;;;;38.38;25.91;100269.36;126847;1088;102860;-79
2021/08/14 10:45:12;;;;;;;;;;;;;;;38.14;25.58;100268.40;126759;1088;102887;-79
2021/08/14 10:48:04;;;;;;;;;;;;;;;37.91;25.46;100260.11;126924;1089;102914;-79
2021/08/14 10:50:52;;;;;;;;;;;;;;;37.60;25.32;100256.44;126791;1090;103004;-79
2021/08/14 10:53:43;;;;;;;;;;;;;;;37.36;25.92;100260.05;126810;1089;102933;-79
2021/08/14 10:56:50;;;;;;;;;;;;;;;37.15;26.34;100253.90;126791;1089;102847;-79
2021/08/14 10:59:48;;;;;;;;;;;;;;;36.85;26.32;100258.35;126850;1090;103009;-79
2021/08/14 11:02:55;;;;;;;;;;;;;;;36.61;27.08;100258.05;126750;1089;103423;-79
2021/08/14 11:05:45;;;;;;;;;;;;;;;36.54;27.04;100257.27;126833;1087;102948;-79
2021/08/14 11:08:33;;;;;;;;;;;;;;;36.41;27.20;100262.77;126685;1090;102821;-79
2021/08/14 11:11:38;;;;;;;;;;;;;;;36.08;27.84;100248.48;126806;1089;102954;-79
2021/08/14 11:14:37;;;;;;;;;;;;;;;35.74;27.79;100250.48;126738;1089;102891;-79
2021/08/14 11:17:34;;;;;;;;;;;;;;;35.43;28.39;100249.29;126797;1090;103114;-79
2021/08/14 11:20:22;;;;;;;;;;;;;;;35.20;28.88;100256.17;126718;1086;103004;-79
2021/08/14 11:23:24;;;;;;;;;;;;;;;35.05;29.00;100246.38;126854;1087;102885;-79
2021/08/14 11:26:11;;;;;;;;;;;;;;;34.84;29.05;100247.38;126831;1090;103097;-79
2021/08/14 11:29:00;;;;;;;;;;;;;;;34.59;29.02;100251.70;126817;1089;102955;-79
2021/08/14 11:31:51;;;;;;;;;;;;;;;34.54;29.38;100265.04;126772;1088;103812;-79
2021/08/14 11:34:40;;;;;;;;;;;;;;;34.67;30.18;100247.98;126740;1089;102997;-79
2021/08/14 11:37:28;;;;;;;;;;;;;;;34.67;29.37;100254.23;126844;1088;102920;-78
2021/08/14 11:40:16;;;;;;;;;;;;;;;34.54;29.25;100256.91;126582;1090;102897;-79
2021/08/14 11:43:09;;;;;;;;;;;;;;;34.30;29.47;100252.87;126838;1090;103415;-78
2021/08/14 11:46:03;;;;;;;;;;;;;;;34.19;29.45;100254.28;126756;1087;102666;-79
2021/08/14 11:48:50;;;;;;;;;;;;;;;34.28;29.53;100240.55;126893;1087;102657;-79
2021/08/14 11:51:40;;;;;;;;;;;;;;;34.10;29.37;100244.65;126717;1090;102937;-79
2021/08/14 11:54:31;;;;;;;;;;;;;;;33.94;29.93;100247.73;126789;1088;102953;-79
2021/08/14 11:57:19;;;;;;;;;;;;;;;33.83;29.87;100242.84;126695;1089;101247;-79
2021/08/14 12:00:19;;;;;;;;;;;;;;;33.58;30.38;100247.92;126820;1089;102888;-78
2021/08/14 12:03:06;;;;;;;;;;;;;;;33.21;30.31;100232.84;126709;1088;102927;-79
2021/08/14 12:06:05;;;;;;;;;;;;;;;33.08;30.47;100246.27;126651;1090;102875;-79
2021/08/14 12:08:55;;;;;;;;;;;;;;;33.01;31.33;100241.63;126851;1088;103184;-79
2021/08/14 12:11:45;;;;;;;;;;;;;;;33.03;31.74;100242.27;126904;1087;102885;-79
2021/08/14 12:14:40;;;;;;;;;;;;;;;33.01;31.20;100241.63;126902;1090;103067;-79
2021/08/14 12:17:40;;;;;;;;;;;;;;;32.99;31.20;100240.98;126760;1087;102679;-79
2021/08/14 12:20:29;;;;;;;;;;;;;;;32.84;31.22;100228.59;126785;1088;102820;-79
2021/08/14 12:23:22;;;;;;;;;;;;;;;32.71;31.72;100234.69;126827;1087;103020;-79
2021/08/14 12:26:11;;;;;;;;;;;;;;;32.66;30.95;100237.95;126928;1090;102997;-79
2021/08/14 12:29:00;;;;;;;;;;;;;;;32.62;31.50;100241.23;126738;1087;102184;-79
2021/08/14 12:31:51;;;;;;;;;;;;;;;32.59;31.49;100239.76;126969;1089;103037;-79
2021/08/14 12:34:40;;;;;;;;;;;;;;;32.34;31.33;100242.00;126764;1088;103642;-80
2021/08/14 12:37:34;;;;;;;;;;;;;;;32.22;31.81;100229.98;126939;1089;104729;-79
2021/08/14 12:40:23;;;;;;;;;;;;;;;32.20;32.37;100228.50;126670;1088;102869;-81
2021/08/14 12:43:15;;;;;;;;;;;;;;;32.16;32.62;100234.28;126886;1088;102850;-79
2021/08/14 12:46:15;;;;;;;;;;;;;;;32.21;33.28;100228.31;126719;1089;102667;-79
2021/08/14 12:49:20;;;;;;;;;;;;;;;32.32;33.03;100229.73;126742;1090;102878;-79
2021/08/14 12:52:08;;;;;;;;;;;;;;;32.26;33.32;100228.56;126643;1089;102951;-79
2021/08/14 12:54:56;;;;;;;;;;;;;;;32.20;34.01;100234.73;126866;1090;102882;-79
2021/08/14 12:57:44;;;;;;;;;;;;;;;32.28;34.05;100225.71;126690;1090;103001;-80
2021/08/14 13:00:32;;;;;;;;;;;;;;;32.31;34.59;100236.12;126880;1090;102697;-80
2021/08/14 13:03:20;;;;;;;;;;;;;;;32.29;34.29;100230.91;126602;1090;102860;-79
2021/08/14 13:06:08;;;;;;;;;;;;;;;32.29;34.05;100225.52;126733;1090;102853;-79
2021/08/14 13:08:55;;;;;;;;;;;;;;;32.26;33.92;100228.56;126687;1088;101143;-80
2021/08/14 13:11:43;;;;;;;;;;;;;;;32.19;34.24;100224.97;126737;1089;102520;-80
2021/08/14 13:14:30;;;;;;;;;;;;;;;32.10;34.69;100220.70;126635;1090;102971;-80
2021/08/14 13:17:19;;;;;;;;;;;;;;;32.08;35.33;100220.89;126753;1090;102937;-79
2021/08/14 13:20:07;;;;;;;;;;;;;;;32.01;35.16;100221.84;126835;1090;102686;-80
2021/08/14 13:22:55;;;;;;;;;;;;;;;32.04;35.35;100214.20;126630;1088;103342;-79
2021/08/14 13:25:42;;;;;;;;;;;;;;;31.96;35.35;100218.86;126834;1090;103058;-79
2021/08/14 13:28:30;;;;;;;;;;;;;;;31.88;35.55;100217.11;126733;1090;103107;-79
2021/08/14 13:31:18;;;;;;;;;;;;;;;31.85;35.38;100218.33;126871;1090;102657;-79
2021/08/14 13:34:09;;;;;;;;;;;;;;;31.72;35.23;100214.58;126758;1089;102935;-80
2021/08/14 13:36:56;;;;;;;;;;;;;;;31.54;35.20;100229.27;126916;1090;102847;-79
2021/08/14 13:39:44;;;;;;;;;;;;;;;31.44;35.41;100217.11;126855;1089;103389;-79
2021/08/14 13:42:33;;;;;;;;;;;;;;;31.36;35.32;100225.27;126711;1089;102874;-79
2021/08/14 13:45:21;;;;;;;;;;;;;;;31.22;35.48;100216.97;126880;1090;102864;-79
2021/08/14 13:48:09;;;;;;;;;;;;;;;31.13;35.59;100207.28;126889;1089;102967;-79
2021/08/14 13:50:57;;;;;;;;;;;;;;;31.05;35.67;100211.89;126937;1089;102934;-79
2021/08/14 13:53:45;;;;;;;;;;;;;;;30.90;36.08;100211.88;126720;1089;101993;-79
2021/08/14 13:56:32;;;;;;;;;;;;;;;30.89;36.58;100202.97;126764;1088;102850;-79
2021/08/14 13:59:21;;;;;;;;;;;;;;;30.85;36.58;100207.02;126625;1088;102887;-79
2021/08/14 14:02:11;;;;;;;;;;;;;;;30.71;36.27;100212.38;126804;1087;102957;-79
2021/08/14 14:04:59;;;;;;;;;;;;;;;30.53;35.98;100209.95;126716;1087;102882;-79
2021/08/14 14:07:47;;;;;;;;;;;;;;;30.42;35.95;100208.50;126810;1089;101454;-79